الصفحة الرئيسية
METAR-TAF:

METAR-TAF

مطار :

مغنيتاغورسك, روسيا

دائرة عرض: 53-23-36N, خط طول: 058-45-24E, ارتفاع: 436 متر

مراقبة الطقس الحالي

تاريخ ووقت الإصدار 35 دقيقة قبل الساعة 11:30UTC
ريح 16 عقدة من الجنوب
درجة الحرارة 22°درجة مئوية
الرطوبة 43%
ضغط 1018 hPa
الرؤية 10 كم أو أكثر
غيوم مفككة على ارتفاع 4000 قدم, مزنة ركامية.

METAR: USCM 241130Z 18008MPS 9999 BKN040CB 22/09 Q1018 R18/090065 NOSIG RMK QFE726

زمن: 17:05 (12:05 UTC)

توقعات

تاريخ ووقت الإصدار 1ساعة و 5 دقيقة قبل الساعة 11:00UTC
التوقعات صالحة من24 الساعة 12 UTC إلى 24 الساعة 21 UTC
ريح 6 عقدة من الجنوب تتزايد حتى 16 عقدة
الرؤية 10 كم أو أكثر
غيوم متفرقة على ارتفاع 4000 قدم, مزنة ركامية.
مؤقت
من 24 الساعة 15 UTC إلى 24 الساعة 21 UTC
الرؤية: 5000 متر
غشاء, دخان

TAF: USCM 241100Z 2412/2421 18003G08MPS 9999 SCT040CB TEMPO 2415/2421 5000 BR FU

أرصاد الطقس والتوقعات من أكثر من 4000 مطار (تقارير الطقس للمطار METAR والتنبؤ بالطقس بالمطارTAF).

المحطات المتاحة هي النقط الصفراء والحمراء على الخريطة.

حرك المؤشر فوق النقطة لمعرفة اسم المحطة.

ثم انقر لمعرفة أرصاد وتوقعات الطقس.

لتغيير الخارطة: اضغط على الأزرار الخضراء مع رمز الصليب الأسود للتكبير. على الزر الأخضر مع شرطة للتصغير، أو على الأسهم الخضراء للخرائط المجاورة.


METAR-TAF: